createdAt,value
2022-07-25T00:03:23.651Z,7.40
2022-07-25T00:08:26.805Z,7.78
2022-07-25T00:13:29.602Z,8.57
2022-07-25T00:18:33.831Z,8.23
2022-07-25T00:23:36.708Z,8.13
2022-07-25T00:28:39.619Z,8.30
2022-07-25T00:33:43.823Z,8.57
2022-07-25T00:38:46.685Z,7.43
2022-07-25T00:43:49.531Z,7.95
2022-07-25T00:48:53.776Z,7.97
2022-07-25T00:53:58.436Z,9.48
2022-07-25T00:59:01.339Z,7.88
2022-07-25T01:04:07.008Z,7.43
2022-07-25T01:09:10.679Z,8.35
2022-07-25T01:14:13.522Z,7.50
2022-07-25T01:19:17.864Z,7.40
2022-07-25T01:24:22.025Z,7.38
2022-07-25T01:29:24.851Z,8.20
2022-07-25T01:34:27.664Z,8.27
2022-07-25T01:39:31.882Z,7.50
2022-07-25T01:44:34.876Z,6.80
2022-07-25T01:49:37.789Z,7.78
2022-07-25T01:54:42.460Z,8.15
2022-07-25T01:59:46.420Z,7.25
2022-07-25T02:04:49.780Z,7.40
2022-07-25T02:09:56.841Z,7.47
2022-07-25T02:15:00.025Z,7.82
2022-07-25T02:20:02.867Z,7.00
2022-07-25T02:25:08.102Z,7.45
2022-07-25T02:30:11.674Z,8.00
2022-07-25T02:35:14.509Z,7.00
2022-07-25T02:40:18.735Z,8.32
2022-07-25T02:45:21.967Z,7.45
2022-07-25T02:50:24.873Z,6.88
2022-07-25T02:55:29.357Z,7.32
2022-07-25T03:00:32.145Z,6.93
2022-07-25T03:05:35.103Z,7.18
2022-07-25T03:10:39.296Z,7.38
2022-07-25T03:15:42.186Z,7.43
2022-07-25T03:20:45.050Z,6.85
2022-07-25T03:25:49.263Z,6.93
2022-07-25T03:30:52.510Z,7.32
2022-07-25T03:35:56.433Z,7.38
2022-07-25T03:41:00.626Z,6.80
2022-07-25T03:46:03.566Z,7.47
2022-07-25T03:51:07.398Z,6.82
2022-07-25T03:56:11.788Z,6.85
2022-07-25T04:01:14.826Z,6.68
2022-07-25T04:06:17.925Z,6.38
2022-07-25T04:11:22.209Z,6.75
2022-07-25T04:16:25.878Z,6.80
2022-07-25T04:21:30.987Z,6.90
2022-07-25T04:26:35.266Z,7.20
2022-07-25T04:31:38.224Z,6.95
2022-07-25T04:36:41.127Z,7.20
2022-07-25T04:41:45.363Z,6.22
2022-07-25T04:46:48.166Z,6.28
2022-07-25T04:51:50.995Z,6.85
2022-07-25T04:56:55.413Z,6.82
2022-07-25T05:01:58.496Z,6.55
2022-07-25T05:07:01.279Z,6.80
2022-07-25T05:12:05.725Z,6.30
2022-07-25T05:17:08.708Z,6.85
2022-07-25T05:22:11.535Z,6.90
2022-07-25T05:27:15.818Z,7.03
2022-07-25T05:32:18.658Z,6.50
2022-07-25T05:37:21.566Z,6.75
2022-07-25T05:42:25.810Z,6.82
2022-07-25T05:47:28.695Z,6.60
2022-07-25T05:52:31.621Z,6.13
2022-07-25T05:57:36.575Z,6.43
2022-07-25T06:02:39.589Z,6.13
2022-07-25T06:07:42.914Z,6.82
2022-07-25T06:12:47.151Z,6.45
2022-07-25T06:17:50.333Z,6.53
2022-07-25T06:22:53.607Z,6.80
2022-07-25T06:27:57.964Z,6.18
2022-07-25T06:33:00.796Z,7.20
2022-07-25T06:38:04.382Z,6.75
2022-07-25T06:43:08.613Z,6.25
2022-07-25T06:48:11.437Z,6.40
2022-07-25T06:53:14.274Z,6.47
2022-07-25T06:58:18.481Z,6.35
2022-07-25T07:03:25.701Z,6.00
2022-07-25T07:08:28.546Z,6.25
2022-07-25T07:13:32.774Z,6.45
2022-07-25T07:18:35.671Z,6.30
2022-07-25T07:23:38.562Z,6.65
2022-07-25T07:28:44.073Z,6.43
2022-07-25T07:33:47.152Z,6.57
2022-07-25T07:38:49.981Z,6.95
2022-07-25T07:43:54.161Z,6.93
2022-07-25T07:48:57.093Z,6.30
2022-07-25T07:54:17.421Z,6.50
2022-07-25T07:59:21.982Z,6.75
2022-07-25T08:04:24.836Z,6.43
2022-07-25T08:09:27.778Z,6.40
2022-07-25T08:14:32.970Z,7.10
2022-07-25T08:19:36.072Z,6.50
2022-07-25T08:24:38.858Z,6.22
2022-07-25T08:29:43.063Z,6.78
2022-07-25T08:34:45.945Z,6.43
2022-07-25T08:39:50.597Z,6.10
2022-07-25T08:44:59.661Z,6.35
2022-07-25T08:50:04.823Z,5.75
2022-07-25T08:55:10.670Z,6.60
2022-07-25T09:00:19.397Z,6.18
2022-07-25T09:05:23.158Z,6.05
2022-07-25T09:10:28.452Z,6.00
2022-07-25T09:15:34.894Z,6.32
2022-07-25T09:20:41.103Z,6.82
2022-07-25T09:25:44.175Z,5.75
2022-07-25T09:30:59.341Z,6.25
2022-07-25T09:36:12.050Z,6.07
2022-07-25T09:41:14.930Z,5.95
2022-07-25T09:46:19.642Z,5.90
2022-07-25T09:51:23.726Z,5.95
2022-07-25T09:56:26.634Z,5.97
2022-07-25T10:01:38.225Z,6.45
2022-07-25T10:06:49.517Z,6.20
2022-07-25T10:12:05.912Z,5.88
2022-07-25T10:17:10.211Z,5.88
2022-07-25T10:22:13.633Z,6.03
2022-07-25T10:27:24.317Z,6.80
2022-07-25T10:32:35.298Z,6.22
2022-07-25T10:37:38.232Z,6.37
2022-07-25T10:42:46.242Z,6.28
2022-07-25T10:47:56.123Z,6.45
2022-07-25T10:53:00.630Z,6.97
2022-07-25T10:58:21.623Z,6.57
2022-07-25T11:03:27.144Z,6.70
2022-07-25T11:08:33.429Z,6.60
2022-07-25T11:13:40.149Z,5.43
2022-07-25T11:18:44.303Z,6.30
2022-07-25T11:23:51.747Z,5.85
2022-07-25T11:28:54.632Z,5.95
2022-07-25T11:33:58.907Z,5.38
2022-07-25T11:39:01.946Z,5.93
2022-07-25T11:44:05.502Z,6.25
2022-07-25T11:49:10.098Z,5.90
2022-07-25T11:54:13.654Z,6.15
2022-07-25T11:59:16.817Z,6.65
2022-07-25T12:04:21.710Z,6.10
2022-07-25T12:09:24.558Z,6.50
2022-07-25T12:14:30.101Z,6.65
2022-07-25T12:19:36.534Z,6.30
2022-07-25T12:24:39.344Z,6.38
2022-07-25T12:29:42.151Z,6.10
2022-07-25T12:34:46.548Z,7.50
2022-07-25T12:39:49.445Z,5.82
2022-07-25T12:44:52.759Z,5.97
2022-07-25T12:49:57.214Z,5.60
2022-07-25T12:55:00.262Z,5.40
2022-07-25T13:00:03.494Z,6.28
2022-07-25T13:05:08.783Z,6.15
2022-07-25T13:10:12.672Z,5.60
2022-07-25T13:15:15.532Z,6.40
2022-07-25T13:20:19.831Z,6.03
2022-07-25T13:25:22.986Z,5.72
2022-07-25T13:30:26.149Z,6.65
2022-07-25T13:35:36.503Z,6.53
2022-07-25T13:40:42.258Z,6.75
2022-07-25T13:45:45.186Z,6.65
2022-07-25T13:50:49.452Z,7.72
2022-07-25T13:55:52.852Z,6.45
2022-07-25T14:00:56.172Z,6.63
2022-07-25T14:06:00.483Z,7.00
2022-07-25T14:11:05.525Z,7.53
2022-07-25T14:16:08.767Z,7.15
2022-07-25T14:21:13.108Z,8.32
2022-07-25T14:26:16.054Z,8.68
2022-07-25T14:31:19.053Z,7.78
2022-07-25T14:36:23.365Z,6.95
2022-07-25T14:41:26.218Z,6.45
2022-07-25T14:46:29.064Z,6.25
2022-07-25T14:51:33.885Z,5.22
2022-07-25T14:56:36.777Z,5.35
2022-07-25T15:01:40.808Z,5.40
2022-07-25T15:06:44.980Z,5.03
2022-07-25T15:11:47.987Z,4.53
2022-07-25T15:16:50.926Z,4.60
2022-07-25T15:21:55.148Z,4.32
2022-07-25T15:26:58.396Z,4.07
2022-07-25T15:32:03.518Z,4.18
2022-07-25T15:37:07.821Z,4.03
2022-07-25T15:42:10.721Z,3.65
2022-07-25T15:47:13.611Z,3.15
2022-07-25T15:52:18.018Z,2.60
2022-07-25T15:57:20.926Z,2.92
2022-07-25T16:02:23.876Z,2.63
2022-07-25T16:07:28.799Z,2.55
2022-07-25T16:12:31.657Z,3.00
2022-07-25T16:17:35.300Z,2.85
2022-07-25T16:22:40.100Z,2.20
2022-07-25T16:27:42.905Z,2.10
2022-07-25T16:32:45.799Z,2.22
2022-07-25T16:37:49.999Z,2.20
2022-07-25T16:42:55.676Z,2.15
2022-07-25T16:47:58.519Z,2.50
2022-07-25T16:53:02.660Z,2.50
2022-07-25T16:58:05.550Z,2.20
2022-07-25T17:03:08.469Z,2.40
2022-07-25T17:08:12.665Z,3.20
2022-07-25T17:13:15.856Z,2.45
2022-07-25T17:18:18.747Z,3.40
2022-07-25T17:23:22.976Z,3.75
2022-07-25T17:28:26.430Z,3.90
2022-07-25T17:33:29.363Z,3.63
2022-07-25T17:38:34.925Z,4.00
2022-07-25T17:43:38.613Z,2.83
2022-07-25T17:48:41.992Z,3.60
2022-07-25T17:53:46.539Z,3.30
2022-07-25T17:58:49.562Z,3.60
2022-07-25T18:03:52.433Z,2.65
2022-07-25T18:08:56.658Z,3.30
2022-07-25T18:13:59.647Z,3.15
2022-07-25T18:19:02.478Z,2.92
2022-07-25T18:24:07.760Z,3.25
2022-07-25T18:29:10.909Z,3.17
2022-07-25T18:34:13.910Z,3.13
2022-07-25T18:39:18.196Z,3.35
2022-07-25T18:44:21.134Z,3.38
2022-07-25T18:49:24.090Z,3.30
2022-07-25T18:54:28.294Z,3.17
2022-07-25T18:59:31.261Z,4.28
2022-07-25T19:04:34.117Z,3.25
2022-07-25T19:09:38.421Z,3.50
2022-07-25T19:14:41.726Z,3.58
2022-07-25T19:19:44.654Z,3.50
2022-07-25T19:24:49.006Z,4.00
2022-07-25T19:29:52.035Z,3.85
2022-07-25T19:34:54.893Z,3.67
2022-07-25T19:39:59.110Z,4.35
2022-07-25T19:45:01.986Z,3.28
2022-07-25T19:50:05.572Z,3.85
2022-07-25T19:55:10.997Z,3.95
2022-07-25T20:00:14.592Z,3.95
2022-07-25T20:05:17.479Z,3.03
2022-07-25T20:10:21.877Z,3.10
2022-07-25T20:15:24.915Z,2.58
2022-07-25T20:20:27.828Z,3.10
2022-07-25T20:25:32.249Z,2.47
2022-07-25T20:30:35.427Z,2.25
2022-07-25T20:35:39.132Z,1.50
2022-07-25T20:40:49.319Z,1.45
2022-07-25T20:45:52.834Z,1.42
2022-07-25T20:50:55.632Z,1.55
2022-07-25T20:55:59.827Z,1.50
2022-07-25T21:01:03.053Z,1.70
2022-07-25T21:06:06.151Z,1.95
2022-07-25T21:11:11.480Z,1.33
2022-07-25T21:16:14.284Z,1.33
2022-07-25T21:21:17.779Z,1.30
2022-07-25T21:26:21.908Z,1.65
2022-07-25T21:31:25.044Z,1.50
2022-07-25T21:36:28.399Z,1.13
2022-07-25T21:41:32.642Z,1.08
2022-07-25T21:46:35.445Z,1.27
2022-07-25T21:51:40.606Z,1.52
2022-07-25T21:56:45.320Z,1.48
2022-07-25T22:01:48.177Z,1.20
2022-07-25T22:06:50.973Z,1.30
2022-07-25T22:11:56.845Z,1.02
2022-07-25T22:16:59.767Z,1.13
2022-07-25T22:22:04.087Z,1.27
2022-07-25T22:27:08.328Z,1.27
2022-07-25T22:32:11.308Z,1.50
2022-07-25T22:37:14.173Z,1.23
2022-07-25T22:42:18.260Z,1.20
2022-07-25T22:47:21.073Z,1.23
2022-07-25T22:52:23.875Z,1.38
2022-07-25T22:57:28.119Z,1.10
2022-07-25T23:02:30.863Z,1.77
2022-07-25T23:07:34.292Z,1.10
2022-07-25T23:12:38.394Z,1.02
2022-07-25T23:17:41.180Z,1.00
2022-07-25T23:22:43.960Z,1.15
2022-07-25T23:27:49.592Z,1.02
2022-07-25T23:32:52.341Z,1.05
2022-07-25T23:37:55.087Z,0.90
2022-07-25T23:42:59.255Z,0.85
2022-07-25T23:48:02.085Z,1.08
2022-07-25T23:53:04.898Z,0.85
2022-07-25T23:58:09.602Z,0.75
